Latest Weather Observations for Nowra

IDN60901

Issued at 2:55 pm EST Saturday 26 July 2014 (issued every 10 minutes, with the page automatically refreshed every 10 minutes)

About weather observations | Map of Canberra area stations | Latest observations for Canberra area | Other Formats
Station Details ID: 068072 Name: NOWRA RAN AIR STATION AWS Lat: -34.95 Lon: 150.54 Height: 109.0 m
Data from the previous 72 hours. | See also: Recent months at Nowra
Date/Time
EST
Tmp

°C
App
Tmp
°C
Dew
Point
°C
Rel
Hum
%
Delta-T

°C
Wind Press
QNH
hPa
Press
MSL
hPa
Rain
since
9 am
mm
Dir
 
Spd
km/h
Gust
km/h
Spd
kts
Gust
kts
26/02:30pm 18.9 13.5 2.7 34 7.5 SW 20 26 11 14 1019.5 - 0.0
26/02:00pm 18.4 11.6 3.1 36 7.1 W 28 37 15 20 1019.5 - 0.0
26/01:30pm 19.8 14.7 4.3 36 7.5 W 20 28 11 15 1019.6 - 0.0
26/01:00pm 19.1 14.8 5.2 40 6.8 WNW 17 28 9 15 1020.0 - 0.0
26/12:30pm 17.3 12.8 6.8 50 5.2 WNW 20 30 11 16 1020.7 - 0.0
26/12:00pm 17.5 13.8 7.8 53 4.9 WNW 17 20 9 11 1021.4 1021.5 0.0
26/11:30am 16.0 13.6 8.7 62 3.7 NW 11 17 6 9 1021.9 - 0.0
26/11:00am 15.0 12.7 9.1 68 3.0 NNW 11 17 6 9 1022.6 - 0.0
26/10:30am 14.4 10.6 9.2 71 2.7 WNW 19 30 10 16 1022.8 - 0.0
26/10:00am 13.5 9.2 9.2 75 2.2 NW 22 26 12 14 1023.4 - 0.0
26/09:30am 13.3 10.2 9.0 75 2.2 WNW 15 20 8 11 1023.5 - 0.0
26/09:00am 12.8 9.7 8.9 77 2.0 WNW 15 17 8 9 1023.0 1023.1 0.0
26/08:30am 12.5 9.0 8.8 78 1.9 WNW 17 20 9 11 1023.1 - 0.0
26/08:00am 11.8 8.3 8.8 82 1.5 W 17 20 9 11 1023.5 - 0.0
26/07:30am 11.7 8.6 8.7 82 1.5 WNW 15 20 8 11 1023.3 - 0.0
26/07:00am 11.2 7.7 8.8 85 1.2 WNW 17 22 9 12 1022.9 - 0.0
26/06:30am 11.5 8.4 8.9 84 1.3 NW 15 19 8 10 1022.5 - 0.0
26/06:00am 11.2 7.7 8.8 85 1.2 W 17 19 9 10 1022.1 1022.2 0.0
26/05:30am 11.6 7.7 8.8 83 1.4 WNW 19 22 10 12 1022.4 - 0.0
26/05:00am 9.9 6.0 8.7 92 0.6 W 19 20 10 11 1022.1 - 0.0
26/04:30am 10.8 7.3 8.7 87 1.0 WNW 17 20 9 11 1022.5 - 0.0
26/04:00am 11.5 8.1 9.1 85 1.2 W 17 19 9 10 1022.3 - 0.0
26/03:30am 10.5 7.3 8.6 88 0.9 W 15 19 8 10 1021.7 - 0.0
26/03:00am 11.2 8.4 8.4 83 1.4 W 13 15 7 8 1022.1 1022.2 0.0
26/02:30am 11.3 8.2 8.7 84 1.3 W 15 17 8 9 1022.4 - 0.0
26/02:00am 11.1 9.0 8.3 83 1.4 W 9 13 5 7 1022.5 - 0.0
26/01:30am 11.5 8.7 8.5 82 1.5 W 13 17 7 9 1022.6 - 0.0
26/01:00am 11.2 8.7 8.4 83 1.4 W 11 15 6 8 1022.6 - 0.0
26/12:30am 11.2 8.4 8.4 83 1.4 W 13 15 7 8 1022.4 - 0.0
26/12:00am 11.6 9.9 8.3 80 1.6 WNW 7 11 4 6 1022.5 1022.6 0.0
 
Date/Time
EST
Tmp

°C
App
Tmp
°C
Dew
Point
°C
Rel
Hum
%
Delta-T

°C
Wind Press
QNH
hPa
Press
MSL
hPa
Rain
since
9 am
mm
Dir
 
Spd
km/h
Gust
km/h
Spd
kts
Gust
kts
25/11:30pm 12.1 9.4 8.8 80 1.7 W 13 13 7 7 1022.5 - 0.0
25/11:00pm 12.3 10.3 8.6 78 1.8 WNW 9 11 5 6 1022.3 - 0.0
25/10:30pm 10.6 8.5 8.4 86 1.1 W 9 13 5 7 1022.2 - 0.0
25/10:00pm 10.6 9.4 8.2 85 1.2 NW 4 7 2 4 1022.0 - 0.0
25/09:30pm 11.0 10.1 7.7 80 1.6 W 2 9 1 5 1021.9 - 0.0
25/09:00pm 11.7 10.0 8.4 80 1.6 W 7 9 4 5 1021.7 1021.8 0.0
25/08:30pm 10.3 8.4 7.7 84 1.3 WSW 7 9 4 5 1021.6 - 0.0
25/08:00pm 10.1 7.7 6.8 80 1.6 WSW 9 11 5 6 1021.1 - 0.0
25/07:30pm 12.0 10.1 6.7 70 2.5 WNW 6 7 3 4 1021.0 - 0.0
25/07:00pm 13.9 11.9 7.0 63 3.4 W 7 9 4 5 1020.7 - 0.0
25/06:30pm 16.0 12.8 7.0 55 4.5 W 13 19 7 10 1020.3 - 0.0
25/06:00pm 17.4 14.4 6.0 47 5.6 W 11 11 6 6 1020.0 1020.1 0.0
25/05:30pm 19.1 14.4 5.9 42 6.5 NW 20 30 11 16 1019.4 - 0.0
25/05:00pm 19.7 15.6 6.4 42 6.7 NW 17 24 9 13 1018.8 - 0.0
25/04:30pm 20.8 18.7 8.1 44 6.6 NNW 9 13 5 7 1018.5 - 0.0
25/04:00pm 21.4 17.9 7.3 40 7.3 NW 15 22 8 12 1018.2 - 0.0
25/03:30pm 20.8 18.6 7.8 43 6.8 NW 9 15 5 8 1018.1 - 0.0
25/03:00pm 21.3 17.8 7.2 40 7.3 NW 15 26 8 14 1018.0 1018.1 0.0
25/02:30pm 21.7 19.0 7.5 40 7.4 WNW 11 17 6 9 1017.8 - 0.0
25/02:00pm 21.0 19.5 9.3 47 6.3 NNW 7 13 4 7 1018.0 - 0.0
25/01:30pm 20.2 17.5 8.8 48 6.0 NNE 13 19 7 10 1018.0 - 0.0
25/01:00pm 20.5 17.6 8.2 45 6.4 NNE 13 17 7 9 1018.3 - 0.0
25/12:30pm 20.0 16.2 7.4 44 6.5 NE 17 24 9 13 1018.6 - 0.0
25/12:00pm 20.3 16.4 8.6 47 6.1 NE 19 22 10 12 1019.0 1019.1 0.0
25/11:30am 19.5 17.9 8.8 50 5.6 N 7 15 4 8 1019.7 - 0.0
25/11:00am 18.2 16.7 9.0 55 4.8 NNW 7 11 4 6 1020.2 - 0.0
25/10:30am 14.9 15.4 11.5 80 1.8 CALM 0 0 0 0 1020.6 - 0.0
25/10:00am 12.7 13.0 10.8 88 1.0 CALM 0 0 0 0 1020.8 - 0.0
25/09:30am 11.7 9.7 8.7 82 1.5 W 9 13 5 7 1020.8 - 0.0
25/09:00am 10.8 8.6 8.0 83 1.4 WNW 9 13 5 7 1020.7 1020.8 0.2
25/08:30am 10.0 7.9 8.3 89 0.8 WNW 9 13 5 7 1020.7 - 0.2
25/08:00am 9.5 7.2 7.6 88 0.9 WNW 9 13 5 7 1020.5 - 0.2
25/07:30am 8.5 6.0 8.4 99 0.0 WNW 11 13 6 7 1019.9 - 0.2
25/07:00am 6.3 4.1 6.0 98 0.1 WNW 7 13 4 7 1019.4 - 0.2
25/06:30am 6.5 4.3 6.4 99 0.0 NW 7 7 4 4 1019.2 - 0.2
25/06:00am 7.3 5.3 7.2 99 0.0 WNW 7 11 4 6 1019.0 1019.1 0.2
25/05:30am 7.3 5.3 7.2 99 0.0 NW 7 9 4 5 1018.9 - 0.2
25/05:00am 6.5 5.7 6.4 99 0.0 CALM 0 0 0 0 1018.7 - 0.2
25/04:30am 5.8 3.7 5.7 99 0.0 WNW 6 7 3 4 1018.6 - 0.2
25/04:00am 6.0 5.1 5.9 99 0.0 CALM 0 6 0 3 1018.8 - 0.2
25/03:30am 6.6 5.4 6.5 99 0.0 NW 2 9 1 5 1018.8 - 0.2
25/03:00am 7.9 6.3 7.8 99 0.0 NW 6 7 3 4 1019.0 1019.1 0.2
25/02:30am 7.2 6.1 6.9 98 0.1 NNW 2 9 1 5 1019.0 - 0.2
25/02:00am 7.6 7.0 7.3 98 0.1 CALM 0 0 0 0 1019.0 - 0.2
25/01:30am 7.3 6.5 6.4 94 0.4 CALM 0 7 0 4 1019.1 - 0.2
25/01:00am 8.4 6.7 7.5 94 0.4 NW 6 9 3 5 1019.0 - 0.2
25/12:30am 9.4 7.8 8.0 91 0.7 NNW 6 9 3 5 1019.0 - 0.2
25/12:00am 10.7 8.3 8.6 87 1.0 NW 11 15 6 8 1019.4 1019.5 0.2
 
Date/Time
EST
Tmp

°C
App
Tmp
°C
Dew
Point
°C
Rel
Hum
%
Delta-T

°C
Wind Press
QNH
hPa
Press
MSL
hPa
Rain
since
9 am
mm
Dir
 
Spd
km/h
Gust
km/h
Spd
kts
Gust
kts
24/11:30pm 11.0 8.3 8.8 86 1.1 WNW 13 17 7 9 1019.6 - 0.2
24/11:00pm 11.3 8.4 8.2 81 1.5 WNW 13 15 7 8 1019.7 - 0.0
24/10:30pm 10.9 8.4 8.3 84 1.3 WNW 11 13 6 7 1019.7 - 0.0
24/10:00pm 9.1 7.1 6.2 82 1.3 NW 6 9 3 5 1019.6 - 0.0
24/09:30pm 10.9 8.5 8.8 87 1.0 WNW 11 13 6 7 1019.7 - 0.0
24/09:00pm 9.6 7.9 8.2 91 0.7 NW 7 9 4 5 1019.6 1019.7 0.0
24/08:30pm 9.0 7.4 8.1 94 0.4 NW 6 11 3 6 1019.5 - 0.0
24/08:00pm 9.0 8.6 8.2 95 0.4 CALM 0 0 0 0 1019.3 - 0.0
24/07:30pm 9.3 8.9 8.2 93 0.5 CALM 0 0 0 0 1019.1 - 0.0
24/07:00pm 8.7 7.9 6.5 86 1.0 CALM 0 0 0 0 1018.8 - 0.0
24/06:30pm 10.8 10.3 8.0 83 1.4 CALM 0 0 0 0 1018.6 - 0.0
24/06:00pm 12.2 11.8 8.1 76 2.0 CALM 0 0 0 0 1018.4 1018.5 0.0
24/05:30pm 14.5 13.0 8.5 67 3.0 NNE 6 9 3 5 1018.3 - 0.0
24/05:00pm 14.9 13.3 8.8 67 3.1 N 7 9 4 5 1018.2 - 0.0
24/04:30pm 15.6 13.6 8.6 63 3.6 ENE 9 13 5 7 1018.0 - 0.0
24/04:00pm 16.4 14.7 8.4 59 4.1 E 7 9 4 5 1017.8 - 0.0
24/03:30pm 17.0 14.3 7.4 53 4.8 ENE 11 15 6 8 1017.6 - 0.0
24/03:00pm 17.7 15.6 6.6 48 5.5 ENE 7 15 4 8 1017.5 1017.6 0.0
24/02:30pm 17.6 15.8 7.1 50 5.3 NNE 6 11 3 6 1017.9 - 0.0
24/02:00pm 16.9 15.1 7.3 53 4.8 NE 6 9 3 5 1018.2 - 0.0
24/01:30pm 16.3 15.4 7.8 57 4.3 NNW 2 6 1 3 1018.7 - 0.0
24/01:00pm 16.2 14.7 8.4 60 4.0 NE 6 9 3 5 1019.1 - 0.0
24/12:30pm 15.3 13.8 8.5 64 3.5 ESE 6 9 3 5 1019.4 - 0.0
24/12:00pm 15.1 14.2 7.9 62 3.6 NNE 2 6 1 3 1020.1 1020.2 0.0
24/11:30am 14.9 14.4 7.7 62 3.6 CALM 0 7 0 4 1020.7 - 0.0
24/11:00am 15.0 14.6 8.3 64 3.4 CALM 0 0 0 0 1021.1 - 0.0
24/10:30am 14.2 13.5 8.6 69 2.8 N 2 7 1 4 1021.6 - 0.0
24/10:00am 13.5 11.9 8.8 73 2.4 WNW 7 9 4 5 1021.7 - 0.0
24/09:30am 11.6 9.2 8.6 82 1.5 WNW 11 13 6 7 1021.7 - 0.0
24/09:00am 11.9 10.5 9.6 86 1.2 NNW 7 9 4 5 1021.5 1021.6 0.0
24/08:30am 9.4 9.1 8.8 96 0.3 CALM 0 6 0 3 1021.2 - 0.0
24/08:00am 7.5 5.8 7.4 99 0.0 NW 6 9 3 5 1021.1 - 0.0
24/07:30am 6.5 4.3 6.4 99 0.0 WNW 7 9 4 5 1021.4 - 0.0
24/07:00am 6.7 3.8 6.6 99 0.0 WNW 11 15 6 8 1021.4 - 0.0
24/06:30am 6.4 3.8 6.3 99 0.0 NW 9 11 5 6 1021.3 - 0.0
24/06:00am 6.4 4.8 6.3 99 0.0 NW 4 9 2 5 1021.0 1021.1 0.0
24/05:30am 4.9 3.7 4.8 99 0.0 CALM 0 0 0 0 1020.5 - 0.0
24/05:00am 6.3 3.3 6.2 99 0.0 WNW 11 13 6 7 1020.3 - 0.0
24/04:30am 5.2 3.7 5.1 99 0.0 NNW 2 7 1 4 1020.3 - 0.0
24/04:00am 6.3 4.3 6.2 99 0.0 N 6 9 3 5 1020.4 - 0.0
24/03:30am 6.9 4.1 6.8 99 0.0 W 11 13 6 7 1020.3 - 0.0
24/03:00am 7.4 5.1 7.3 99 0.0 WNW 9 13 5 7 1020.5 1020.6 0.0
24/02:30am 6.6 4.1 6.5 99 0.0 WNW 9 13 5 7 1020.8 - 0.0
24/02:00am 6.8 4.3 6.7 99 0.0 WNW 9 11 5 6 1020.8 - 0.0
24/01:30am 6.2 4.0 6.1 99 0.0 NW 7 13 4 7 1021.0 - 0.0
24/01:00am 5.8 4.8 5.7 99 0.0 CALM 0 0 0 0 1021.1 - 0.0
24/12:30am 5.9 3.6 5.5 97 0.2 NW 7 7 4 4 1021.6 - 0.0
24/12:00am 6.0 4.9 5.1 94 0.4 CALM 0 6 0 3 1021.9 1022.0 0.0
 
Date/Time
EST
Tmp

°C
App
Tmp
°C
Dew
Point
°C
Rel
Hum
%
Delta-T

°C
Wind Press
QNH
hPa
Press
MSL
hPa
Rain
since
9 am
mm
Dir
 
Spd
km/h
Gust
km/h
Spd
kts
Gust
kts
23/11:30pm 8.1 5.8 7.5 96 0.3 W 9 11 5 6 1022.2 - 0.0
23/11:00pm 8.6 5.2 7.8 95 0.4 W 15 17 8 9 1022.3 - 0.0
23/10:30pm 8.2 6.0 7.8 97 0.2 W 9 13 5 7 1022.5 - 0.0
23/10:00pm 7.6 6.9 7.0 96 0.3 CALM 0 6 0 3 1022.6 - 0.0
23/09:30pm 8.1 7.6 8.0 99 0.0 CALM 0 0 0 0 1022.7 - 0.0
23/09:00pm 7.0 6.2 6.6 97 0.2 CALM 0 0 0 0 1022.7 1022.8 0.0
23/08:30pm 7.0 4.9 6.6 97 0.2 W 7 11 4 6 1022.6 - 0.0
23/08:00pm 6.7 4.7 6.1 96 0.3 W 6 9 3 5 1022.4 - 0.0
23/07:30pm 6.3 3.9 5.3 93 0.4 WSW 7 9 4 5 1022.4 - 0.0
23/07:00pm 7.1 4.4 5.6 90 0.7 SW 9 9 5 5 1022.1 - 0.0
23/06:30pm 7.1 4.8 5.7 91 0.6 SSW 7 11 4 6 1022.1 - 0.0
23/06:00pm 8.2 7.2 5.7 84 1.1 CALM 0 0 0 0 1021.9 1022.0 0.0
23/05:30pm 11.4 9.4 7.1 75 2.1 NE 7 9 4 5 1021.7 - 0.0
23/05:00pm 12.3 9.9 6.8 69 2.6 ENE 9 13 5 7 1021.5 - 0.0
23/04:30pm 13.9 10.4 7.2 64 3.3 ENE 15 20 8 11 1021.4 - 0.0
23/04:00pm 14.9 11.0 7.2 60 3.8 NE 17 20 9 11 1021.3 - 0.0
23/03:30pm 15.2 11.3 7.2 59 4.0 ENE 17 20 9 11 1021.2 - 0.0
23/03:00pm 15.9 11.4 6.9 55 4.4 E 20 24 11 13 1021.1 1021.2 0.0

Latest Capital City Observations: Canberra | Sydney | Melbourne | Brisbane | Adelaide | Perth | Hobart | Darwin

Other Formats:

Comma delimited format used in spreadsheet applications
http://www.bom.gov.au/fwo/IDN60903/IDN60903.94750.axf

JavaScript Object Notation format (JSON) in row-major order
http://www.bom.gov.au/fwo/IDN60903/IDN60903.94750.json